Time;durP1;ratioP1;P1;durP2;ratioP2;P2;SDS_P1;SDS_P2;PMS_P1;PMS_P2;Temp;Humidity;BMP_temperature;BMP_pressure;BME280_temperature;BME280_humidity;BME280_pressure;Samples;Min_cycle;Max_cycle;Signal;HPM_P1;HPM_P2
2022/01/04 00:00:26;;;;;;;2.40;0.32;;;;;;;8.22;96.52;100010.19;5058178;28;20086;-74
2022/01/04 00:02:54;;;;;;;0.80;0.40;;;;;;;8.24;95.92;100018.75;5060408;28;20068;-72
2022/01/04 00:05:21;;;;;;;0.40;0.32;;;;;;;8.18;96.69;100006.13;5061992;28;20048;-73
2022/01/04 00:07:48;;;;;;;0.73;0.45;;;;;;;8.16;95.89;100002.84;5043913;28;20098;-72
2022/01/04 00:10:20;;;;;;;0.52;0.38;;;;;;;8.15;96.04;100008.16;5050666;28;20059;-75
2022/01/04 00:15:31;;;;;;;0.98;0.60;;;;;;;8.12;96.72;99992.72;5060361;28;20063;-71
2022/01/04 00:17:59;;;;;;;1.27;0.50;;;;;;;8.10;96.68;99989.38;5060125;28;20128;-72
2022/01/04 00:20:25;;;;;;;0.77;0.50;;;;;;;8.10;96.70;99978.91;5062425;28;20375;-72
2022/01/04 00:22:52;;;;;;;0.88;0.50;;;;;;;8.10;96.70;99973.69;5060719;28;20036;-71
2022/01/04 00:25:19;;;;;;;0.73;0.45;;;;;;;8.07;97.23;99969.53;5060973;28;20119;-72
2022/01/04 00:27:45;;;;;;;1.27;0.90;;;;;;;8.09;97.64;99961.56;5062990;28;20040;-72
2022/01/04 00:30:12;;;;;;;3.05;0.80;;;;;;;8.06;97.29;99959.19;5067452;28;20071;-72
2022/01/04 00:32:39;;;;;;;0.45;0.32;;;;;;;8.00;97.59;99947.41;5076433;28;20029;-73
2022/01/04 00:35:08;;;;;;;0.75;0.40;;;;;;;7.99;97.72;99958.88;5081854;28;20071;-72
2022/01/04 00:37:35;;;;;;;1.42;0.65;;;;;;;7.99;97.15;99943.16;5049840;28;20055;-73
2022/01/04 00:40:01;;;;;;;0.45;0.30;;;;;;;7.96;97.53;99945.22;5054044;28;20045;-73
2022/01/04 00:42:28;;;;;;;0.95;0.60;;;;;;;7.93;97.68;99934.13;5059733;28;20037;-73
2022/01/04 00:44:54;;;;;;;0.73;0.47;;;;;;;7.92;97.68;99929.88;5056948;28;20040;-72
2022/01/04 00:47:26;;;;;;;0.90;0.63;;;;;;;7.94;97.92;99916.53;5056441;28;20048;-72
2022/01/04 00:49:52;;;;;;;1.08;0.70;;;;;;;7.90;97.31;99906.47;5052721;28;20094;-73
2022/01/04 00:52:20;;;;;;;0.80;0.60;;;;;;;7.88;97.94;99897.09;5055529;28;20048;-73
2022/01/04 00:54:49;;;;;;;0.75;0.63;;;;;;;7.85;97.97;99890.31;5055137;28;20047;-72
2022/01/04 00:57:15;;;;;;;5.90;0.60;;;;;;;7.83;98.53;99888.78;5054522;28;20040;-73
2022/01/04 00:59:42;;;;;;;1.83;0.63;;;;;;;7.86;97.76;99897.22;5054510;28;20048;-71
2022/01/04 01:02:08;;;;;;;2.50;0.60;;;;;;;7.85;97.65;99886.88;5054807;28;20131;-72
2022/01/04 01:04:35;;;;;;;0.88;0.50;;;;;;;7.84;98.14;99883.44;5056069;28;20044;-72
2022/01/04 01:07:02;;;;;;;3.22;1.52;;;;;;;7.86;97.89;99880.69;5052965;28;20043;-72
2022/01/04 01:09:34;;;;;;;0.70;0.40;;;;;;;7.85;97.62;99881.63;5058833;28;20055;-71
2022/01/04 01:12:01;;;;;;;1.50;0.80;;;;;;;7.84;98.03;99877.38;5055293;28;20068;-71
2022/01/04 01:14:28;;;;;;;1.67;0.70;;;;;;;7.83;98.39;99881.75;5057627;28;20134;-71
2022/01/04 01:16:54;;;;;;;3.83;0.70;;;;;;;7.82;97.68;99879.28;5053787;28;20032;-72
2022/01/04 01:19:21;;;;;;;0.45;0.32;;;;;;;7.81;97.94;99872.41;5055819;28;20036;-72
2022/01/04 01:21:47;;;;;;;0.93;0.60;;;;;;;7.79;97.87;99867.31;5055135;28;20049;-72
2022/01/04 01:24:14;;;;;;;2.55;0.47;;;;;;;7.79;98.15;99863.84;5055587;28;20482;-72
2022/01/04 01:26:42;;;;;;;0.80;0.47;;;;;;;7.79;98.03;99866.44;5054906;28;20051;-72
2022/01/04 01:29:09;;;;;;;4.50;1.08;;;;;;;7.81;98.07;99861.94;5053524;28;20113;-72
2022/01/04 01:31:35;;;;;;;0.82;0.50;;;;;;;7.79;98.09;99863.84;5055730;28;20056;-71
2022/01/04 01:34:02;;;;;;;2.58;0.50;;;;;;;7.79;97.74;99866.44;5043745;28;20147;-71
2022/01/04 01:36:28;;;;;;;5.50;0.73;;;;;;;7.77;97.53;99860.50;5054384;28;20051;-70
2022/01/04 01:38:55;;;;;;;1.30;1.10;;;;;;;7.76;97.81;99866.69;5053451;28;20124;-73
2022/01/04 01:41:21;;;;;;;1.73;0.82;;;;;;;7.78;98.34;99862.19;5055382;28;20044;-71
2022/01/04 01:43:49;;;;;;;0.85;0.50;;;;;;;7.75;98.25;99857.22;5054761;28;20068;-72
2022/01/04 01:46:16;;;;;;;2.25;0.80;;;;;;;7.73;98.30;99854.72;5054276;28;20045;-72
2022/01/04 01:48:42;;;;;;;0.80;0.45;;;;;;;7.75;98.73;99846.75;5053616;28;20123;-71
2022/01/04 01:51:09;;;;;;;1.38;0.80;;;;;;;7.76;98.52;99848.41;5043779;28;20048;-72
2022/01/04 01:53:36;;;;;;;0.73;0.45;;;;;;;7.73;98.11;99846.03;5055030;28;20055;-72
2022/01/04 01:56:02;;;;;;;3.25;0.70;;;;;;;7.73;98.14;99838.22;5040581;28;20048;-73
2022/01/04 01:58:29;;;;;;;2.40;1.25;;;;;;;7.75;98.35;99839.72;5056530;28;20049;-71
2022/01/04 02:00:57;;;;;;;1.60;0.60;;;;;;;7.69;98.63;99837.63;5035695;28;20054;-72
2022/01/04 02:03:23;;;;;;;0.73;0.57;;;;;;;7.74;98.19;99834.63;5044519;28;20051;-71
2022/01/04 02:05:50;;;;;;;1.75;0.93;;;;;;;7.72;97.74;99824.28;5056239;28;20044;-72
2022/01/04 02:08:18;;;;;;;1.40;0.65;;;;;;;7.75;98.03;99833.69;5053543;28;20051;-72
2022/01/04 02:10:45;;;;;;;1.05;0.47;;;;;;;7.75;98.37;99831.88;5051422;28;20072;-71
2022/01/04 02:13:12;;;;;;;4.50;0.88;;;;;;;7.72;97.57;99826.91;5054225;28;20116;-72
2022/01/04 02:15:38;;;;;;;1.63;0.55;;;;;;;7.72;97.60;99826.91;5052070;28;20156;-72
2022/01/04 02:18:08;;;;;;;0.52;0.38;;;;;;;7.73;97.77;99822.53;5054148;28;20074;-71
2022/01/04 02:20:36;;;;;;;0.88;0.52;;;;;;;7.75;97.74;99815.38;5054485;28;20044;-71
2022/01/04 02:23:03;;;;;;;0.90;0.50;;;;;;;7.72;97.55;99810.41;5038304;28;20052;-71
2022/01/04 02:25:29;;;;;;;5.80;1.17;;;;;;;7.70;97.88;99818.38;5051498;28;20045;-71
2022/01/04 02:27:57;;;;;;;4.32;0.77;;;;;;;7.73;97.86;99812.06;5054358;28;20063;-72
2022/01/04 02:30:27;;;;;;;1.73;0.73;;;;;;;7.76;97.64;99803.94;5052666;28;20060;-71
2022/01/04 02:32:56;;;;;;;3.33;0.90;;;;;;;7.74;98.25;99792.81;5038804;28;20070;-71
2022/01/04 02:35:25;;;;;;;1.60;0.80;;;;;;;7.73;97.78;99786.75;5045260;28;20048;-71
2022/01/04 02:37:55;;;;;;;4.55;0.80;;;;;;;7.71;97.60;99786.06;5034579;28;20040;-72
2022/01/04 02:40:22;;;;;;;3.90;0.88;;;;;;;7.73;98.27;99780.69;5035243;28;20160;-71
2022/01/04 02:42:49;;;;;;;1.15;0.68;;;;;;;7.73;97.71;99770.25;5053175;28;20114;-72
2022/01/04 02:45:15;;;;;;;6.63;0.95;;;;;;;7.69;97.69;99779.28;5053159;28;20044;-71
2022/01/04 02:47:42;;;;;;;0.80;0.50;;;;;;;7.68;98.42;99782.84;5053160;28;20051;-71
2022/01/04 02:50:10;;;;;;;1.17;0.70;;;;;;;7.71;97.54;99775.59;5054266;28;20052;-71
2022/01/04 02:52:38;;;;;;;1.85;0.85;;;;;;;7.70;98.07;99775.72;5055859;28;20440;-72
2022/01/04 02:55:07;;;;;;;2.55;1.33;;;;;;;7.69;97.31;99767.06;5054585;28;20047;-72
2022/01/04 02:57:35;;;;;;;0.75;0.50;;;;;;;7.68;97.86;99765.38;5043712;28;20106;-71
2022/01/04 03:00:01;;;;;;;0.77;0.52;;;;;;;7.64;97.96;99761.34;5053380;28;20055;-74
2022/01/04 03:02:28;;;;;;;1.20;0.70;;;;;;;7.60;97.91;99754.75;5057976;28;20068;-70
2022/01/04 03:04:55;;;;;;;1.08;0.90;;;;;;;7.58;97.95;99751.41;5046023;28;20096;-72
2022/01/04 03:07:21;;;;;;;1.52;0.65;;;;;;;7.64;98.09;99747.47;5067331;28;20040;-73
2022/01/04 03:09:48;;;;;;;1.67;0.80;;;;;;;7.63;98.05;99743.19;5070363;28;20040;-73
2022/01/04 03:12:16;;;;;;;2.42;1.05;;;;;;;7.58;97.54;99737.53;5079811;28;20036;-73
2022/01/04 03:14:44;;;;;;;1.73;0.98;;;;;;;7.61;97.98;99734.66;5047476;28;20056;-72
2022/01/04 03:17:11;;;;;;;3.35;0.90;;;;;;;7.61;98.09;99734.66;5054207;28;20044;-71
2022/01/04 03:19:37;;;;;;;0.57;0.50;;;;;;;7.56;97.68;99721.16;5049706;28;20561;-72
2022/01/04 03:22:04;;;;;;;1.85;1.02;;;;;;;7.56;97.63;99719.34;5051103;28;20127;-70
2022/01/04 03:24:31;;;;;;;1.48;0.68;;;;;;;7.59;97.66;99713.88;5048786;28;20044;-72
2022/01/04 03:26:58;;;;;;;1.38;0.93;;;;;;;7.58;97.62;99714.00;5050280;28;20064;-70
2022/01/04 03:29:27;;;;;;;1.73;1.13;;;;;;;7.61;97.81;99703.28;5048568;28;20044;-74
2022/01/04 03:31:57;;;;;;;12.73;1.92;;;;;;;7.58;98.06;99693.09;5034715;28;20055;-71
2022/01/04 03:34:24;;;;;;;1.35;1.08;;;;;;;7.61;98.04;99692.84;5052244;28;20071;-73
2022/01/04 03:36:50;;;;;;;2.13;0.90;;;;;;;7.61;97.57;99682.38;5051290;28;20483;-71
2022/01/04 03:39:17;;;;;;;1.70;0.95;;;;;;;7.61;97.42;99685.00;5050933;28;20048;-70
2022/01/04 03:41:46;;;;;;;1.45;1.00;;;;;;;7.61;97.87;99677.16;5052707;28;20494;-72
2022/01/04 03:44:18;;;;;;;1.15;0.80;;;;;;;7.57;97.57;99675.78;5047774;28;20035;-73
2022/01/04 03:46:46;;;;;;;1.75;1.10;;;;;;;7.58;97.24;99669.59;5049062;28;20141;-72
2022/01/04 03:49:13;;;;;;;6.20;1.77;;;;;;;7.57;97.65;99660.09;5051865;28;20048;-72
2022/01/04 03:51:39;;;;;;;1.92;0.85;;;;;;;7.58;97.61;99661.75;5053096;28;20068;-72
2022/01/04 03:54:06;;;;;;;0.93;0.70;;;;;;;7.62;97.44;99655.28;5050396;28;20116;-72
2022/01/04 03:56:32;;;;;;;1.50;1.15;;;;;;;7.63;97.89;99651.72;5052808;28;20040;-71
2022/01/04 03:59:02;;;;;;;3.70;1.10;;;;;;;7.66;97.12;99648.88;5050736;28;20048;-71
2022/01/04 04:01:28;;;;;;;4.90;1.00;;;;;;;7.61;98.01;99646.63;5040147;28;20040;-71
2022/01/04 04:03:56;;;;;;;1.83;0.65;;;;;;;7.62;98.06;99631.78;5051594;28;20051;-71
2022/01/04 04:06:24;;;;;;;3.05;0.88;;;;;;;7.64;97.29;99624.63;5058211;28;20135;-72
2022/01/04 04:08:51;;;;;;;2.22;0.88;;;;;;;7.62;97.94;99621.31;5051077;28;20040;-72
2022/01/04 04:11:18;;;;;;;3.25;1.40;;;;;;;7.62;97.40;99605.63;5051197;28;20114;-74
2022/01/04 04:13:44;;;;;;;3.97;1.25;;;;;;;7.57;97.39;99611.25;5050700;28;20059;-71
2022/01/04 04:16:11;;;;;;;2.08;1.20;;;;;;;7.60;97.81;99610.16;5049892;28;20139;-71
2022/01/04 04:18:37;;;;;;;3.85;1.05;;;;;;;7.61;97.81;99603.97;5053782;28;20048;-72
2022/01/04 04:21:06;;;;;;;1.88;1.13;;;;;;;7.56;98.00;99595.72;5052570;28;20056;-72
2022/01/04 04:23:32;;;;;;;2.22;1.02;;;;;;;7.56;98.49;99586.06;5052180;28;20045;-71
2022/01/04 04:26:00;;;;;;;1.58;1.15;;;;;;;7.53;97.99;99586.34;5051677;28;20059;-72
2022/01/04 04:28:26;;;;;;;3.08;0.95;;;;;;;7.59;98.42;99577.16;5041292;28;20075;-73
2022/01/04 04:30:53;;;;;;;1.75;0.88;;;;;;;7.59;98.02;99572.75;5040470;28;20037;-71
2022/01/04 04:33:20;;;;;;;1.77;0.70;;;;;;;7.59;97.66;99566.72;5053500;28;20132;-72
2022/01/04 04:35:46;;;;;;;1.45;1.10;;;;;;;7.64;97.35;99573.19;5051136;28;20059;-72
2022/01/04 04:38:14;;;;;;;3.78;1.17;;;;;;;7.62;97.59;99564.66;5050818;28;20478;-71
2022/01/04 04:40:41;;;;;;;1.08;0.75;;;;;;;7.58;98.07;99557.22;5051992;28;20215;-72
2022/01/04 04:43:07;;;;;;;1.90;1.25;;;;;;;7.58;97.42;99558.03;5052670;28;20044;-71
2022/01/04 04:45:34;;;;;;;1.17;0.73;;;;;;;7.52;98.03;99557.72;5053217;28;20049;-71
2022/01/04 04:48:00;;;;;;;4.85;0.95;;;;;;;7.52;98.25;99560.34;5054451;28;20916;-72
2022/01/04 04:50:27;;;;;;;1.23;0.80;;;;;;;7.56;98.55;99565.16;5055220;28;20040;-73
2022/01/04 04:52:54;;;;;;;2.45;1.15;;;;;;;7.54;98.41;99563.66;5056104;28;20498;-72
2022/01/04 04:55:22;;;;;;;1.63;1.02;;;;;;;7.57;97.82;99563.41;5057939;28;20720;-72
2022/01/04 04:57:48;;;;;;;2.47;1.40;;;;;;;7.56;98.26;99564.34;5056310;28;20077;-70
2022/01/04 05:00:15;;;;;;;1.75;1.13;;;;;;;7.54;97.46;99561.03;5054247;28;20033;-72
2022/01/04 05:02:42;;;;;;;0.95;0.77;;;;;;;7.47;97.71;99541.63;5054452;28;20502;-72
2022/01/04 05:05:10;;;;;;;1.95;1.00;;;;;;;7.53;97.75;99559.38;5058612;28;20510;-71
2022/01/04 05:07:36;;;;;;;3.00;0.95;;;;;;;7.52;97.59;99555.09;5052201;28;20083;-71
2022/01/04 05:10:04;;;;;;;1.77;0.90;;;;;;;7.51;98.42;99564.75;5031509;28;20040;-72
2022/01/04 05:12:32;;;;;;;7.47;1.25;;;;;;;7.50;98.47;99552.63;5056961;28;20429;-72
2022/01/04 05:14:59;;;;;;;1.13;0.80;;;;;;;7.48;97.82;99565.00;5056896;28;20059;-71
2022/01/04 05:17:26;;;;;;;2.75;1.58;;;;;;;7.47;97.81;99559.91;5060695;28;20037;-71
2022/01/04 05:19:52;;;;;;;4.30;1.38;;;;;;;7.51;98.08;99556.91;5055314;28;20055;-72
2022/01/04 05:22:19;;;;;;;1.70;1.20;;;;;;;7.48;97.98;99553.72;5057036;28;20048;-71
2022/01/04 05:24:45;;;;;;;3.67;1.33;;;;;;;7.53;97.62;99554.16;5056413;28;20087;-72
2022/01/04 05:27:12;;;;;;;1.67;1.00;;;;;;;7.50;98.06;99555.25;5056435;28;20119;-72
2022/01/04 05:29:40;;;;;;;1.90;1.10;;;;;;;7.50;98.06;99557.03;5056414;28;20056;-72
2022/01/04 05:32:08;;;;;;;2.95;1.13;;;;;;;7.56;97.59;99564.34;5059767;28;20128;-71
2022/01/04 05:34:35;;;;;;;1.85;1.27;;;;;;;7.51;98.09;99556.91;5058758;28;20127;-69
2022/01/04 05:37:01;;;;;;;2.50;1.30;;;;;;;7.52;97.79;99547.25;5035444;28;20052;-71
2022/01/04 05:39:28;;;;;;;4.03;1.42;;;;;;;7.54;97.87;99538.38;5060908;28;20052;-70
2022/01/04 05:41:55;;;;;;;1.88;1.23;;;;;;;7.51;97.74;99536.00;5064355;28;20047;-70
2022/01/04 05:44:22;;;;;;;1.25;0.98;;;;;;;7.52;98.13;99535.03;5071666;28;20064;-71
2022/01/04 05:46:49;;;;;;;4.05;1.38;;;;;;;7.51;97.40;99527.34;5075220;28;20063;-71
2022/01/04 05:49:17;;;;;;;3.03;1.27;;;;;;;7.46;97.87;99506.00;5082703;28;20100;-71
2022/01/04 05:51:43;;;;;;;1.75;1.17;;;;;;;7.42;97.87;99500.22;5063844;28;20118;-71
2022/01/04 05:54:10;;;;;;;4.60;1.40;;;;;;;7.45;97.92;99483.44;5058107;28;20061;-73
2022/01/04 05:56:37;;;;;;;1.83;0.88;;;;;;;7.43;98.30;99483.56;5057367;28;20049;-70
2022/01/04 05:59:03;;;;;;;1.65;1.10;;;;;;;7.43;97.61;99482.72;5056996;28;20065;-72
2022/01/04 06:01:31;;;;;;;5.47;1.58;;;;;;;7.44;97.80;99492.22;5055846;28;22006;-71
2022/01/04 06:03:59;;;;;;;2.00;1.00;;;;;;;7.50;97.58;99496.94;5059320;28;20044;-72
2022/01/04 06:06:25;;;;;;;1.98;0.98;;;;;;;7.53;97.43;99496.66;5055284;28;20042;-70
2022/01/04 06:08:52;;;;;;;0.95;0.80;;;;;;;7.56;97.21;99501.63;5054825;28;20036;-71
2022/01/04 06:11:30;;;;;;;2.17;1.23;;;;;;;7.55;96.86;99499.97;5059111;28;20045;-71
2022/01/04 06:16:41;;;;;;;3.47;1.17;;;;;;;7.59;96.34;99501.38;5060226;28;20048;-71
2022/01/04 06:19:09;;;;;;;1.67;0.98;;;;;;;7.60;96.86;99497.78;5057318;28;20101;-71
2022/01/04 06:21:36;;;;;;;2.08;1.05;;;;;;;7.55;97.29;99500.78;5059182;28;20041;-70
2022/01/04 06:24:02;;;;;;;1.95;1.20;;;;;;;7.54;97.44;99493.09;5055863;28;20132;-72
2022/01/04 06:26:29;;;;;;;2.63;1.27;;;;;;;7.53;97.34;99491.44;5058315;28;20113;-70
2022/01/04 06:28:56;;;;;;;5.88;1.35;;;;;;;7.57;97.41;99482.38;5054602;28;20560;-67
2022/01/04 06:31:22;;;;;;;3.03;1.60;;;;;;;7.59;96.50;99480.47;5062644;28;20063;-71
2022/01/04 06:33:49;;;;;;;1.67;1.15;;;;;;;7.56;97.13;99471.09;5053980;28;20508;-73
2022/01/04 06:36:17;;;;;;;2.15;1.20;;;;;;;7.57;96.97;99471.94;5060001;28;20054;-71
2022/01/04 06:38:43;;;;;;;6.03;2.03;;;;;;;7.54;97.25;99472.19;5060455;28;20063;-71
2022/01/04 06:41:10;;;;;;;2.13;0.80;;;;;;;7.60;97.30;99474.28;5060660;28;20052;-72
2022/01/04 06:43:37;;;;;;;1.90;1.42;;;;;;;7.58;97.03;99458.72;5058186;28;20050;-71
2022/01/04 06:46:03;;;;;;;2.90;1.10;;;;;;;7.58;96.65;99457.91;5061238;28;20036;-71
2022/01/04 06:48:31;;;;;;;3.10;1.55;;;;;;;7.59;96.84;99463.00;5063152;28;20079;-71
2022/01/04 06:50:58;;;;;;;1.55;1.20;;;;;;;7.58;97.07;99468.38;5058700;28;20067;-71
2022/01/04 06:53:26;;;;;;;3.03;2.03;;;;;;;7.62;97.05;99459.28;5048314;28;20089;-72
2022/01/04 06:55:53;;;;;;;3.65;2.22;;;;;;;7.61;96.28;99462.84;5057895;28;20040;-73
2022/01/04 06:58:19;;;;;;;1.95;1.27;;;;;;;7.60;97.28;99461.19;5059930;28;20051;-73
2022/01/04 07:00:46;;;;;;;4.00;1.55;;;;;;;7.55;96.87;99448.53;5040809;28;20036;-71
2022/01/04 07:03:13;;;;;;;2.35;1.60;;;;;;;7.53;96.94;99457.47;5059636;28;20052;-72
2022/01/04 07:05:39;;;;;;;2.33;1.60;;;;;;;7.55;96.99;99451.16;5054995;28;20119;-70
2022/01/04 07:08:06;;;;;;;8.05;2.28;;;;;;;7.55;97.61;99451.16;5058405;28;20053;-70
2022/01/04 07:10:34;;;;;;;3.92;2.22;;;;;;;7.51;97.23;99436.72;5054784;28;20210;-72
2022/01/04 07:13:01;;;;;;;2.08;1.40;;;;;;;7.50;97.48;99435.06;5060238;28;20114;-71
2022/01/04 07:15:27;;;;;;;5.72;1.65;;;;;;;7.53;97.43;99433.97;5057986;28;20051;-73
2022/01/04 07:17:54;;;;;;;5.25;1.95;;;;;;;7.51;96.88;99433.28;5060370;28;20067;-70
2022/01/04 07:20:20;;;;;;;3.28;2.17;;;;;;;7.50;97.47;99431.63;5061688;28;20088;-72
2022/01/04 07:22:47;;;;;;;3.30;1.77;;;;;;;7.52;97.58;99442.75;5059450;28;20048;-70
2022/01/04 07:25:13;;;;;;;1.65;1.20;;;;;;;7.52;97.80;99453.19;5060667;28;20048;-72
2022/01/04 07:27:41;;;;;;;2.53;1.73;;;;;;;7.49;97.91;99443.03;5057442;28;20126;-72
2022/01/04 07:30:08;;;;;;;6.35;3.00;;;;;;;7.43;98.38;99427.88;5058344;28;20129;-71
2022/01/04 07:32:35;;;;;;;4.25;1.80;;;;;;;7.40;98.07;99426.34;5041860;28;20057;-72
2022/01/04 07:35:02;;;;;;;4.97;2.47;;;;;;;7.40;98.41;99428.16;5060797;28;20128;-72
2022/01/04 07:37:28;;;;;;;3.33;1.90;;;;;;;7.43;99.04;99428.72;5057624;28;20119;-72
2022/01/04 07:39:55;;;;;;;5.15;2.42;;;;;;;7.39;98.35;99429.13;5059678;28;20044;-72
2022/01/04 07:42:22;;;;;;;3.22;1.35;;;;;;;7.37;98.74;99424.03;5062008;28;20052;-71
2022/01/04 07:44:50;;;;;;;4.43;2.13;;;;;;;7.35;98.96;99422.47;5063842;28;20499;-70
2022/01/04 07:47:16;;;;;;;1.90;1.38;;;;;;;7.34;99.23;99415.63;5063804;28;20044;-72
2022/01/04 07:49:43;;;;;;;5.80;2.53;;;;;;;7.36;99.37;99408.47;5059340;28;20049;-72
2022/01/04 07:52:10;;;;;;;10.18;2.08;;;;;;;7.35;99.27;99422.47;5056688;28;20048;-71
2022/01/04 07:54:37;;;;;;;3.55;2.15;;;;;;;7.33;99.12;99412.19;5059277;28;20052;-74
2022/01/04 07:57:04;;;;;;;4.05;2.10;;;;;;;7.37;98.98;99412.75;5061063;28;20049;-72
2022/01/04 07:59:34;;;;;;;2.45;1.67;;;;;;;7.36;99.33;99422.38;5059145;28;20141;-72
2022/01/04 08:02:02;;;;;;;4.95;2.63;;;;;;;7.35;99.37;99422.47;5056897;28;20126;-73
2022/01/04 08:04:29;;;;;;;5.10;2.30;;;;;;;7.38;99.79;99424.84;5060570;28;20052;-73
2022/01/04 08:06:55;;;;;;;4.47;2.10;;;;;;;7.39;99.46;99432.53;5060781;28;20041;-72
2022/01/04 08:09:22;;;;;;;2.70;1.77;;;;;;;7.40;99.04;99415.09;5059859;28;20087;-73
2022/01/04 08:11:48;;;;;;;3.47;1.98;;;;;;;7.34;99.34;99423.47;5060697;28;20036;-73
2022/01/04 08:14:15;;;;;;;5.25;2.33;;;;;;;7.32;99.11;99409.72;5053212;28;20056;-72
2022/01/04 08:16:41;;;;;;;4.80;2.20;;;;;;;7.29;99.66;99399.53;5058056;28;20071;-72
2022/01/04 08:19:09;;;;;;;2.88;2.03;;;;;;;7.34;99.55;99403.38;5065819;28;20047;-73
2022/01/04 08:21:36;;;;;;;5.78;1.95;;;;;;;7.33;99.75;99416.59;5061028;28;20055;-73
2022/01/04 08:24:04;;;;;;;7.93;2.70;;;;;;;7.34;99.22;99402.56;5084520;28;20066;-72
2022/01/04 08:26:31;;;;;;;3.97;2.05;;;;;;;7.38;100.00;99396.09;5073828;28;20090;-72
2022/01/04 08:28:58;;;;;;;4.13;2.28;;;;;;;7.39;99.87;99400.38;5064679;28;20106;-73
2022/01/04 08:31:24;;;;;;;3.80;2.05;;;;;;;7.42;99.89;99394.91;5062566;28;20052;-73
2022/01/04 08:33:51;;;;;;;3.97;2.58;;;;;;;7.45;99.00;99387.63;5045102;28;20045;-72
2022/01/04 08:36:19;;;;;;;9.05;2.35;;;;;;;7.47;99.75;99403.16;5061419;28;20116;-72
2022/01/04 08:38:46;;;;;;;3.80;2.30;;;;;;;7.51;99.30;99400.13;5053533;28;20056;-72
2022/01/04 08:41:12;;;;;;;3.30;1.80;;;;;;;7.52;98.59;99401.78;5043442;28;20135;-72
2022/01/04 08:43:39;;;;;;;3.78;2.55;;;;;;;7.52;98.71;99395.72;5062250;28;20056;-72
2022/01/04 08:46:05;;;;;;;3.95;2.67;;;;;;;7.53;98.54;99403.44;5061184;28;20037;-72
2022/01/04 08:48:32;;;;;;;4.85;2.13;;;;;;;7.54;99.16;99396.41;5062705;28;20131;-73
2022/01/04 08:50:58;;;;;;;2.85;2.10;;;;;;;7.56;98.58;99403.16;5063028;28;20128;-71
2022/01/04 08:53:26;;;;;;;4.50;2.17;;;;;;;7.58;98.79;99397.81;5062571;28;20048;-71
2022/01/04 08:55:53;;;;;;;3.75;2.65;;;;;;;7.60;98.42;99399.31;5044727;28;20036;-72
2022/01/04 08:58:20;;;;;;;3.58;2.40;;;;;;;7.58;98.67;99390.78;5060523;28;20044;-72
2022/01/04 09:00:48;;;;;;;6.32;2.22;;;;;;;7.62;98.64;99401.78;5054998;28;20693;-71
2022/01/04 09:03:14;;;;;;;5.35;2.22;;;;;;;7.68;98.04;99414.31;5042181;28;20459;-72
2022/01/04 09:05:41;;;;;;;4.25;2.20;;;;;;;7.74;98.47;99424.25;5046435;28;20135;-71
2022/01/04 09:08:07;;;;;;;4.32;2.65;;;;;;;7.68;97.83;99420.38;5060478;28;20188;-72
2022/01/04 09:10:35;;;;;;;4.40;2.47;;;;;;;7.73;97.70;99441.69;5063672;28;20104;-72
2022/01/04 09:13:07;;;;;;;2.65;1.90;;;;;;;7.74;98.02;99443.34;5061387;28;20040;-71
2022/01/04 09:15:47;;;;;;;2.70;2.25;;;;;;;7.71;97.50;99442.81;5064567;28;20133;-72
2022/01/04 09:20:59;;;;;;;4.00;2.78;;;;;;;7.69;98.25;99434.25;5063277;28;20043;-72
2022/01/04 09:23:25;;;;;;;4.07;2.50;;;;;;;7.73;97.77;99430.44;5059130;28;20072;-72
2022/01/04 09:25:54;;;;;;;3.35;2.20;;;;;;;7.78;97.67;99423.00;5062682;28;20059;-71
2022/01/04 09:28:22;;;;;;;5.47;2.30;;;;;;;7.76;97.54;99417.91;5041210;28;20044;-72
2022/01/04 09:30:50;;;;;;;4.80;2.20;;;;;;;7.81;97.00;99422.75;5062802;28;20050;-72
2022/01/04 09:33:17;;;;;;;3.65;2.30;;;;;;;7.87;97.57;99422.19;5060782;28;20098;-72
2022/01/04 09:35:44;;;;;;;5.07;2.92;;;;;;;7.94;97.02;99429.38;5058598;28;20042;-72
2022/01/04 09:38:11;;;;;;;5.70;2.78;;;;;;;7.97;97.30;99429.91;5053005;28;20052;-71
2022/01/04 09:40:39;;;;;;;7.35;3.42;;;;;;;7.99;97.29;99421.94;5062033;28;20040;-72
2022/01/04 09:43:07;;;;;;;4.95;3.10;;;;;;;7.98;96.94;99428.97;5062171;28;20037;-71
2022/01/04 09:45:34;;;;;;;5.60;2.97;;;;;;;8.01;96.76;99441.75;5059745;28;20049;-73
2022/01/04 09:48:01;;;;;;;2.90;1.95;;;;;;;8.01;96.58;99441.75;5062940;28;20091;-74
2022/01/04 09:50:28;;;;;;;4.72;2.42;;;;;;;7.98;96.45;99442.03;5061302;28;20040;-72
2022/01/04 09:52:56;;;;;;;9.27;3.88;;;;;;;7.97;96.76;99440.38;5063013;28;20044;-72
2022/01/04 09:55:23;;;;;;;7.18;2.83;;;;;;;7.99;97.20;99433.22;5059400;28;20055;-71
2022/01/04 09:57:51;;;;;;;6.15;3.20;;;;;;;7.99;96.87;99428.00;5066990;28;20048;-72
2022/01/04 10:00:19;;;;;;;9.88;5.07;;;;;;;8.00;96.35;99421.78;5059428;28;20047;-74
2022/01/04 10:02:49;;;;;;;2.85;2.20;;;;;;;8.02;95.99;99421.66;5043409;28;20384;-71
2022/01/04 10:05:19;;;;;;;4.35;2.80;;;;;;;8.03;95.27;99423.31;5062150;28;20049;-72
2022/01/04 10:07:47;;;;;;;4.85;3.00;;;;;;;8.06;95.94;99434.31;5043852;28;20053;-70
2022/01/04 10:10:16;;;;;;;8.35;4.55;;;;;;;8.07;96.08;99430.75;5060212;28;20453;-73
2022/01/04 10:12:51;;;;;;;5.90;2.90;;;;;;;8.11;96.10;99432.13;5061313;28;20048;-71
2022/01/04 10:15:35;;;;;;;7.30;3.63;;;;;;;8.13;96.14;99434.59;5036466;28;20136;-73
2022/01/04 10:18:17;;;;;;;5.53;3.15;;;;;;;8.12;95.46;99433.78;5036431;28;20303;-72
2022/01/04 10:20:48;;;;;;;8.57;3.03;;;;;;;8.11;95.02;99432.13;5039437;28;20077;-71
2022/01/04 10:23:17;;;;;;;5.47;3.45;;;;;;;8.13;96.23;99438.03;5040676;28;20051;-70
2022/01/04 10:25:45;;;;;;;8.45;3.47;;;;;;;8.14;95.44;99420.53;5042979;28;20068;-71
2022/01/04 10:28:12;;;;;;;4.68;3.03;;;;;;;8.14;96.36;99431.84;5040969;28;20045;-71
2022/01/04 10:30:43;;;;;;;7.13;3.75;;;;;;;8.14;96.17;99418.78;5042301;28;20056;-71
2022/01/04 10:33:11;;;;;;;4.35;2.78;;;;;;;8.16;95.85;99397.72;5039179;28;20128;-72
2022/01/04 10:35:39;;;;;;;6.82;3.35;;;;;;;8.24;95.28;99406.56;5042428;28;20048;-71
2022/01/04 10:38:13;;;;;;;5.85;3.30;;;;;;;8.28;95.02;99405.28;5039872;28;20047;-70
2022/01/04 10:40:41;;;;;;;10.05;5.65;;;;;;;8.37;94.76;99401.03;5041494;28;20058;-71
2022/01/04 10:43:10;;;;;;;5.20;3.05;;;;;;;8.50;94.69;99402.38;5035402;28;20065;-72
2022/01/04 10:45:38;;;;;;;7.57;3.33;;;;;;;8.56;94.10;99400.97;5042014;28;20056;-71
2022/01/04 10:48:18;;;;;;;24.30;4.53;;;;;;;8.55;94.85;99394.94;5038195;28;20052;-71
2022/01/04 10:51:05;;;;;;;8.13;4.47;;;;;;;8.50;93.56;99389.28;5035223;28;20074;-72
2022/01/04 10:53:37;;;;;;;6.85;4.45;;;;;;;8.48;93.79;99393.84;5038095;28;20037;-72
2022/01/04 10:56:06;;;;;;;11.70;5.10;;;;;;;8.47;93.82;99401.81;5041351;28;20051;-70
2022/01/04 10:58:36;;;;;;;7.50;5.10;;;;;;;8.43;94.36;99390.00;5051536;28;20041;-70
2022/01/04 11:01:06;;;;;;;6.45;3.75;;;;;;;8.40;94.89;99385.03;5059610;28;20033;-71
2022/01/04 11:03:35;;;;;;;9.40;5.78;;;;;;;8.35;94.06;99390.69;5057708;28;20044;-71
2022/01/04 11:06:05;;;;;;;6.63;4.35;;;;;;;8.34;95.22;99388.22;5038269;28;20045;-71
2022/01/04 11:08:31;;;;;;;15.30;6.53;;;;;;;8.39;95.49;99389.47;5041436;28;20059;-73
2022/01/04 11:10:58;;;;;;;12.15;5.95;;;;;;;8.43;95.12;99390.00;5040021;28;20505;-70
2022/01/04 11:13:25;;;;;;;11.10;5.38;;;;;;;8.40;94.02;99385.88;5037517;28;20055;-72
2022/01/04 11:15:52;;;;;;;11.63;6.90;;;;;;;8.41;95.42;99402.38;5052016;28;20053;-72
2022/01/04 11:18:19;;;;;;;11.57;5.75;;;;;;;8.44;95.42;99400.31;5059997;28;20045;-71
2022/01/04 11:20:48;;;;;;;12.80;6.05;;;;;;;8.45;94.65;99394.13;5059440;28;20064;-72
2022/01/04 11:23:15;;;;;;;25.00;7.22;;;;;;;8.45;94.08;99395.94;5060743;28;20052;-72
2022/01/04 11:25:45;;;;;;;11.35;6.57;;;;;;;8.46;95.02;99395.78;5053535;28;20124;-71
2022/01/04 11:28:13;;;;;;;7.85;4.53;;;;;;;8.49;94.45;99390.28;5059855;28;20041;-73
2022/01/04 11:30:49;;;;;;;13.18;6.53;;;;;;;8.50;93.98;99378.00;5059210;28;20047;-70
2022/01/04 11:33:20;;;;;;;11.85;5.90;;;;;;;8.49;94.36;99387.66;5060931;28;20048;-71
2022/01/04 11:35:48;;;;;;;14.63;7.22;;;;;;;8.53;94.67;99388.19;5061263;28;20040;-71
2022/01/04 11:38:30;;;;;;;14.90;5.63;;;;;;;8.57;94.18;99400.88;5058932;28;20748;-72
2022/01/04 11:40:57;;;;;;;10.23;6.18;;;;;;;8.55;94.51;99402.78;5041342;28;20055;-72
2022/01/04 11:43:29;;;;;;;6.43;4.00;;;;;;;8.53;93.74;99390.81;5059859;28;20045;-73
2022/01/04 11:45:56;;;;;;;13.43;5.85;;;;;;;8.49;94.08;99387.66;5028141;28;20571;-71
2022/01/04 11:48:28;;;;;;;17.20;6.68;;;;;;;8.48;94.34;99387.78;5060249;28;20048;-72
2022/01/04 11:50:57;;;;;;;20.58;6.60;;;;;;;8.53;94.16;99394.25;5059835;28;20502;-71